| time (UTC) | temp F | wind direction | speed MPH | gust MPH | rain 1hr in | rain 24hr in | rain mn in | humidity % | barometer mb |
| 20260506033837 | 53 | 327 | 3.0 | 5.0 | 0.09 | 0.26 | 0.00 | 91 | 1007.3 |
| 20260506031538 | 53 | 329 | 5.0 | 9.0 | 0.19 | 0.26 | 0.00 | 91 | 1007.2 |
| 20260506025257 | 54 | 340 | 4.0 | 8.0 | 0.21 | 0.25 | 0.25 | 91 | 1007.4 |
| 20260506022716 | 54 | 309 | 3.0 | 12.0 | 0.24 | 0.24 | 0.24 | 90 | 1007.9 |
| 20260506020727 | 55 | 294 | 8.0 | 14.0 | 0.17 | 0.17 | 0.17 | 89 | 1007.9 |
| 20260506015105 | 56 | 284 | 6.0 | 19.0 | 0.07 | 0.07 | 0.07 | 88 | 1008.0 |
| 20260506012958 | 59 | 265 | 8.0 | 17.0 | 0.04 | 0.04 | 0.04 | 87 | 1007.0 |
| 20260506011119 | 62 | 291 | 5.0 | 9.0 | 0.00 | 0.00 | 0.00 | 73 | 1006.7 |
| 20260506004918 | 63 | 235 | 3.0 | 11.0 | 0.00 | 0.00 | 0.00 | 69 | 1006.5 |
| 20260506002925 | 63 | 225 | 5.0 | 8.0 | 0.00 | 0.00 | 0.00 | 67 | 1006.2 |
| 20260506001041 | 64 | 42 | 1.0 | 5.0 | 0.00 | 0.00 | 0.00 | 65 | 1005.4 |
| 20260505235309 | 64 | 44 | 3.0 | 7.0 | 0.00 | 0.00 | 0.00 | 63 | 1005.4 |
| 20260505233319 | 64 | 65 | 5.0 | 10.0 | 0.00 | 0.00 | 0.00 | 64 | 1005.4 |
| 20260505231325 | 64 | 55 | 5.0 | 10.0 | 0.00 | 0.00 | 0.00 | 62 | 1005.5 |
| 20260505225327 | 66 | 44 | 4.0 | 5.0 | 0.00 | 0.00 | 0.00 | 58 | 1005.5 |
| 20260505223600 | 67 | 46 | 3.0 | 6.0 | 0.00 | 0.00 | 0.00 | 58 | 1005.5 |
| 20260505222042 | 67 | 99 | 1.0 | 4.0 | 0.00 | 0.00 | 0.00 | 63 | 1005.4 |
| 20260505220158 | 68 | 58 | 5.0 | 15.0 | 0.00 | 0.00 | 0.00 | 62 | 1005.4 |
| 20260505214208 | 68 | 76 | 10.0 | 16.0 | 0.00 | 0.00 | 0.00 | 61 | 1005.5 |
| 20260505212545 | 69 | 70 | 8.0 | 12.0 | 0.00 | 0.00 | 0.00 | 61 | 1005.5 |
| 20260505210704 | 69 | 70 | 9.0 | 17.0 | 0.00 | 0.00 | 0.00 | 59 | 1005.5 |
| 20260505205039 | 70 | 39 | 10.0 | 21.0 | 0.00 | 0.00 | 0.00 | 55 | 1005.5 |
| 20260505203158 | 71 | 28 | 7.0 | 19.0 | 0.00 | 0.00 | 0.00 | 54 | 1005.6 |
| 20260505201649 | 71 | 46 | 10.0 | 20.0 | 0.00 | 0.00 | 0.00 | 53 | 1005.7 |
| 20260505195804 | 72 | 49 | 6.0 | 20.0 | 0.00 | 0.00 | 0.00 | 52 | 1005.6 |
| 20260505193921 | 72 | 40 | 11.0 | 19.0 | 0.00 | 0.00 | 0.00 | 52 | 1005.6 |
| 20260505191926 | 72 | 42 | 7.0 | 17.0 | 0.00 | 0.00 | 0.00 | 51 | 1005.6 |
| 20260505190213 | 74 | 101 | 5.0 | 8.0 | 0.00 | 0.00 | 0.00 | 44 | 1005.7 |
| 20260505184329 | 73 | 80 | 5.0 | 11.0 | 0.00 | 0.00 | 0.00 | 44 | 1005.8 |
| 20260505182557 | 74 | 84 | 10.0 | 13.0 | 0.00 | 0.00 | 0.00 | 42 | 1005.9 |
| 20260505180450 | 75 | 103 | 5.0 | 10.0 | 0.00 | 0.00 | 0.00 | 40 | 1006.0 |
| 20260505174722 | 75 | 43 | 4.0 | 7.0 | 0.00 | 0.00 | 0.00 | 39 | 1006.1 |
| 20260505173112 | 74 | 37 | 4.0 | 11.0 | 0.00 | 0.00 | 0.00 | 41 | 1006.4 |
| 20260505171610 | 76 | 51 | 1.0 | 5.0 | 0.00 | 0.00 | 0.00 | 37 | 1006.6 |
| 20260505165658 | 75 | 31 | 3.0 | 11.0 | 0.00 | 0.00 | 0.00 | 38 | 1006.7 |
| 20260505163927 | 75 | 53 | 7.0 | 13.0 | 0.00 | 0.00 | 0.00 | 41 | 1006.6 |
| 20260505162156 | 75 | 40 | 4.0 | 12.0 | 0.00 | 0.00 | 0.00 | 41 | 1006.7 |
| 20260505160201 | 75 | 324 | 4.0 | 11.0 | 0.00 | 0.00 | 0.00 | 40 | 1007.0 |
| 20260505152212 | 74 | 46 | 5.0 | 10.0 | 0.00 | 0.00 | 0.00 | 42 | 1007.1 |
| 20260505150217 | 74 | 67 | 6.0 | 11.0 | 0.00 | 0.00 | 0.00 | 43 | 1007.3 |
| 20260505140608 | 73 | 35 | 7.0 | 11.0 | 0.00 | 0.00 | 0.00 | 43 | 1007.8 |
| 20260505123130 | 71 | 299 | 3.0 | 8.0 | 0.00 | 0.00 | 0.00 | 46 | 1008.7 |
| 20260505121532 | 69 | 349 | 4.0 | 11.0 | 0.00 | 0.00 | 0.00 | 51 | 1008.8 |
| 20260505115736 | 68 | 39 | 5.0 | 10.0 | 0.00 | 0.00 | 0.00 | 50 | 1008.8 |
| 20260505113955 | 67 | 11 | 8.0 | 12.0 | 0.00 | 0.00 | 0.00 | 54 | 1008.8 |
| 20260505112556 | 68 | 36 | 5.0 | 10.0 | 0.00 | 0.00 | 0.00 | 53 | 1009.0 |
| 20260505111050 | 66 | 53 | 6.0 | 8.0 | 0.00 | 0.00 | 0.00 | 59 | 1009.2 |
| 20260505100630 | 64 | 324 | 3.0 | 10.0 | 0.00 | 0.00 | 0.00 | 65 | 1009.4 |
| 20260505094543 | 63 | 68 | 5.0 | 8.0 | 0.00 | 0.00 | 0.00 | 67 | 1009.6 |
| 20260505092759 | 63 | 4 | 2.0 | 4.0 | 0.00 | 0.00 | 0.00 | 66 | 1009.8 |
| 20260505091137 | 62 | 13 | 1.0 | 4.0 | 0.00 | 0.00 | 0.00 | 68 | 1010.0 |
| 20260505084922 | 61 | 356 | 0.0 | 1.0 | 0.00 | 0.00 | 0.00 | 70 | 1009.9 |
| 20260505083300 | 60 | 11 | 2.0 | 4.0 | 0.00 | 0.00 | 0.00 | 70 | 1009.8 |
| 20260505081309 | 60 | 304 | 2.0 | 3.0 | 0.00 | 0.00 | 0.00 | 72 | 1010.0 |
| 20260505075202 | 59 | 305 | 1.0 | 3.0 | 0.00 | 0.00 | 0.00 | 74 | 1009.9 |
| 20260505073652 | 58 | 310 | 2.0 | 4.0 | 0.00 | 0.00 | 0.00 | 75 | 1010.0 |
| 20260505072029 | 58 | 322 | 1.0 | 3.0 | 0.00 | 0.00 | 0.00 | 73 | 1010.0 |
| 20260505070255 | 58 | 304 | 1.0 | 3.0 | 0.00 | 0.00 | 0.00 | 74 | 1010.1 |
| 20260505064158 | 58 | 308 | 0.0 | 1.0 | 0.00 | 0.00 | 0.00 | 71 | 1010.1 |
| 20260505062527 | 59 | 308 | 0.0 | 0.0 | 0.00 | 0.00 | 0.00 | 70 | 1010.1 |
| 20260505061346 | 59 | 308 | 0.0 | 1.0 | 0.00 | 0.00 | 0.00 | 70 | 1010.1 |
| 20260505055837 | 58 | 303 | 0.0 | 1.0 | 0.00 | 0.00 | 0.00 | 71 | 1010.1 |
| 20260505054328 | 58 | 303 | 0.0 | 1.0 | 0.00 | 0.00 | 0.00 | 71 | 1010.1 |
| 20260505052336 | 58 | 303 | 0.0 | 1.0 | 0.00 | 0.00 | 0.00 | 71 | 1010.1 |
| 20260505050604 | 58 | 302 | 0.0 | 3.0 | 0.00 | 0.00 | 0.00 | 72 | 1010.1 |
| 20260505041108 | 57 | 297 | 2.0 | 3.0 | 0.00 | 0.00 | 0.00 | 73 | 1010.3 |
| 20260505035441 | 57 | 304 | 3.0 | 3.0 | 0.00 | 0.00 | 0.00 | 74 | 1010.4 |